Time;durP1;ratioP1;P1;durP2;ratioP2;P2;SDS_P1;SDS_P2;PMS_P1;PMS_P2;Temp;Humidity;BMP_temperature;BMP_pressure;BME280_temperature;BME280_humidity;BME280_pressure;Samples;Min_cycle;Max_cycle;Signal;HPM_P1;HPM_P2
2021/09/29 00:02:15;;;;;;;6.43;4.37;;;13.20;97.50;;;;;;5124231;22;20172;-71
2021/09/29 00:04:40;;;;;;;10.73;4.63;;;13.10;97.50;;;;;;5075331;28;20021;-71
2021/09/29 00:07:06;;;;;;;6.57;4.07;;;13.10;98.70;;;;;;5064717;28;20083;-72
2021/09/29 00:09:32;;;;;;;5.88;4.18;;;13.10;99.10;;;;;;5064741;28;20024;-72
2021/09/29 00:11:58;;;;;;;5.30;3.73;;;13.20;98.90;;;;;;5064360;28;20088;-71
2021/09/29 00:14:24;;;;;;;7.03;4.10;;;13.30;98.80;;;;;;5063489;28;20211;-71
2021/09/29 00:16:50;;;;;;;4.77;4.10;;;13.30;98.70;;;;;;5064669;28;20021;-71
2021/09/29 00:19:15;;;;;;;5.70;3.87;;;13.30;98.70;;;;;;5063226;28;20023;-71
2021/09/29 00:21:41;;;;;;;5.70;4.10;;;13.30;98.80;;;;;;5064251;28;20208;-71
2021/09/29 00:24:07;;;;;;;6.57;4.27;;;13.30;99.00;;;;;;5064472;28;20219;-71
2021/09/29 00:26:33;;;;;;;5.33;4.30;;;13.30;99.20;;;;;;5064447;28;20208;-70
2021/09/29 00:28:59;;;;;;;4.93;3.93;;;13.20;99.50;;;;;;5064438;28;20021;-71
2021/09/29 00:34:06;;;;;;;5.47;3.78;;;13.20;99.80;;;;;;5089583;28;20055;-71
2021/09/29 00:36:36;;;;;;;4.25;3.45;;;13.20;99.90;;;;;;5103547;28;20362;-71
2021/09/29 00:39:02;;;;;;;5.07;3.70;;;13.20;99.90;;;;;;5103392;28;20020;-71
2021/09/29 00:41:28;;;;;;;7.03;4.00;;;13.20;99.90;;;;;;5086234;28;20019;-71
2021/09/29 00:43:54;;;;;;;5.63;4.00;;;13.20;99.90;;;;;;5104416;28;20376;-71
2021/09/29 00:46:20;;;;;;;4.90;3.63;;;13.30;99.90;;;;;;5104397;28;20016;-71
2021/09/29 00:48:45;;;;;;;4.77;3.67;;;13.30;99.80;;;;;;5104024;28;20118;-70
2021/09/29 00:51:11;;;;;;;6.23;3.77;;;13.30;99.70;;;;;;5103836;28;20016;-71
2021/09/29 00:53:37;;;;;;;6.33;3.93;;;13.40;99.60;;;;;;5103111;28;20020;-71
2021/09/29 00:56:05;;;;;;;6.13;3.65;;;13.40;99.20;;;;;;5104087;28;20020;-71
2021/09/29 00:58:30;;;;;;;4.72;3.38;;;13.40;99.00;;;;;;5069677;28;20023;-71
2021/09/29 01:00:56;;;;;;;4.13;3.70;;;13.40;98.70;;;;;;5103758;28;20095;-71
2021/09/29 01:03:22;;;;;;;5.03;3.67;;;13.40;98.70;;;;;;5102444;28;20028;-71
2021/09/29 01:05:48;;;;;;;5.78;3.53;;;13.40;98.50;;;;;;5068618;28;20024;-71
2021/09/29 01:08:16;;;;;;;5.73;3.97;;;13.40;98.40;;;;;;5069229;28;20104;-70
2021/09/29 01:10:56;;;;;;;4.90;3.97;;;13.50;98.20;;;;;;5085947;28;20065;-71
2021/09/29 01:13:33;;;;;;;5.28;3.45;;;13.50;98.10;;;;;;5102737;28;20322;-72
2021/09/29 01:16:03;;;;;;;;;;;13.40;98.00;;;;;;5103147;28;20051;-71
2021/09/29 01:18:30;;;;;;;6.00;3.50;;;13.40;97.90;;;;;;5102373;28;20202;-71
2021/09/29 01:21:14;;;;;;;4.97;3.28;;;13.50;97.80;;;;;;5069218;28;20032;-71
2021/09/29 01:24:11;;;;;;;5.50;4.15;;;13.50;97.70;;;;;;5069187;28;20027;-71
2021/09/29 01:26:39;;;;;;;7.28;4.18;;;13.50;97.70;;;;;;5086483;28;20226;-71
2021/09/29 01:29:14;;;;;;;3.83;3.33;;;13.50;97.40;;;;;;5102477;28;20034;-71
2021/09/29 01:31:40;;;;;;;5.30;3.88;;;13.50;97.40;;;;;;5085679;28;20024;-71
2021/09/29 01:34:07;;;;;;;4.27;3.43;;;13.40;97.50;;;;;;5102022;28;20023;-71
2021/09/29 01:36:33;;;;;;;5.28;3.63;;;13.50;97.40;;;;;;5102393;28;20016;-71
2021/09/29 01:39:00;;;;;;;6.37;3.53;;;13.50;97.30;;;;;;5102332;28;20074;-71
2021/09/29 01:41:31;;;;;;;4.90;3.85;;;13.50;97.40;;;;;;5085060;28;20059;-71
2021/09/29 01:43:57;;;;;;;3.78;3.15;;;13.50;97.40;;;;;;5102275;28;20065;-72
2021/09/29 01:46:25;;;;;;;6.25;4.68;;;13.50;95.20;;;;;;5068810;28;20035;-72
2021/09/29 01:48:54;;;;;;;5.40;3.58;;;13.50;94.50;;;;;;5101917;28;20024;-72
2021/09/29 01:51:20;;;;;;;7.18;4.40;;;13.50;94.10;;;;;;5101809;28;20318;-72
2021/09/29 01:53:46;;;;;;;6.33;4.33;;;13.60;94.30;;;;;;5102082;28;20028;-71
2021/09/29 01:56:12;;;;;;;4.45;3.47;;;13.60;94.70;;;;;;5068577;28;20036;-72
2021/09/29 01:58:38;;;;;;;4.83;3.70;;;13.50;95.40;;;;;;5103103;28;20088;-72
2021/09/29 02:01:03;;;;;;;4.97;3.47;;;13.60;97.20;;;;;;5102792;28;20330;-71
2021/09/29 02:03:29;;;;;;;5.93;4.23;;;13.50;97.10;;;;;;5100488;28;20012;-72
2021/09/29 02:05:55;;;;;;;5.00;3.33;;;13.50;97.00;;;;;;5085180;28;20024;-72
2021/09/29 02:08:21;;;;;;;4.20;3.33;;;13.50;97.20;;;;;;5101739;28;20092;-72
2021/09/29 02:10:47;;;;;;;4.63;3.93;;;13.60;97.20;;;;;;5084984;28;20020;-72
2021/09/29 02:13:12;;;;;;;5.57;4.07;;;13.40;97.10;;;;;;5102809;28;20044;-72
2021/09/29 02:15:38;;;;;;;4.70;3.53;;;13.20;97.50;;;;;;5084908;28;20061;-72
2021/09/29 02:18:04;;;;;;;5.73;4.53;;;13.20;97.70;;;;;;5089446;28;20024;-71
2021/09/29 02:20:30;;;;;;;6.00;4.30;;;13.30;97.60;;;;;;5070282;28;20021;-72
2021/09/29 02:22:55;;;;;;;7.80;4.20;;;13.30;97.60;;;;;;5061374;28;20021;-71
2021/09/29 02:25:22;;;;;;;5.73;4.40;;;13.20;97.90;;;;;;5061404;28;20319;-71
2021/09/29 02:27:48;;;;;;;;;;;13.10;96.90;;;;;;5061762;28;20025;-71
2021/09/29 02:30:14;;;;;;;6.32;4.22;;;13.20;96.20;;;;;;5062175;28;20240;-71
2021/09/29 02:32:40;;;;;;;6.78;4.85;;;13.10;98.50;;;;;;5062386;28;20021;-71
2021/09/29 02:35:08;;;;;;;7.47;4.67;;;13.10;98.40;;;;;;5095937;28;20029;-72
2021/09/29 02:37:34;;;;;;;6.50;4.35;;;13.20;98.10;;;;;;5084733;28;20050;-72
2021/09/29 02:39:59;;;;;;;6.83;4.70;;;13.20;97.90;;;;;;5102473;28;20231;-71
2021/09/29 02:42:25;;;;;;;7.23;4.90;;;13.10;98.20;;;;;;5102530;28;20020;-72
2021/09/29 02:44:51;;;;;;;5.63;4.30;;;13.10;98.30;;;;;;5102671;28;20028;-71
2021/09/29 02:47:17;;;;;;;6.03;4.30;;;13.20;98.10;;;;;;5102529;28;20020;-71
2021/09/29 02:49:43;;;;;;;6.23;4.40;;;13.20;98.00;;;;;;5102282;28;20028;-71
2021/09/29 02:52:08;;;;;;;6.93;4.70;;;13.30;98.00;;;;;;5102123;28;20346;-71
2021/09/29 02:54:34;;;;;;;6.13;4.97;;;13.30;98.10;;;;;;5102481;28;20062;-71
2021/09/29 02:57:00;;;;;;;7.10;4.78;;;13.30;98.70;;;;;;5102557;28;20055;-71
2021/09/29 02:59:26;;;;;;;6.80;4.57;;;13.30;99.40;;;;;;5102458;28;20083;-71
2021/09/29 03:01:51;;;;;;;8.40;5.30;;;13.30;99.30;;;;;;5101956;28;20034;-71
2021/09/29 03:04:17;;;;;;;5.67;3.97;;;13.30;99.50;;;;;;5099821;28;20039;-71
2021/09/29 03:06:43;;;;;;;7.60;4.40;;;13.30;99.70;;;;;;5101138;28;20059;-71
2021/09/29 03:09:09;;;;;;;8.13;4.83;;;13.30;99.80;;;;;;5102426;28;20443;-71
2021/09/29 03:11:35;;;;;;;7.60;4.43;;;13.30;99.80;;;;;;5102022;28;20038;-71
2021/09/29 03:14:00;;;;;;;7.47;4.43;;;13.40;99.80;;;;;;5102293;28;20278;-71
2021/09/29 03:16:26;;;;;;;6.77;4.67;;;13.30;99.80;;;;;;5102306;28;20028;-71
2021/09/29 03:18:54;;;;;;;6.40;4.70;;;13.40;99.90;;;;;;5102096;28;20035;-71
2021/09/29 03:21:20;;;;;;;6.57;4.30;;;13.30;99.90;;;;;;5101821;28;20046;-71
2021/09/29 03:23:46;;;;;;;8.10;4.70;;;13.30;99.90;;;;;;5101786;28;20024;-71
2021/09/29 03:26:11;;;;;;;7.87;4.53;;;13.30;99.90;;;;;;5101630;28;20035;-71
2021/09/29 03:28:37;;;;;;;6.10;4.13;;;13.30;99.90;;;;;;5103339;28;20016;-72
2021/09/29 03:31:03;;;;;;;6.10;4.20;;;13.30;99.90;;;;;;5104921;28;20024;-72
2021/09/29 03:33:29;;;;;;;7.63;5.07;;;13.30;99.90;;;;;;5103921;28;20023;-71
2021/09/29 03:35:55;;;;;;;6.53;4.72;;;13.30;99.90;;;;;;5104919;28;20119;-72
2021/09/29 03:38:21;;;;;;;8.23;4.97;;;13.30;99.90;;;;;;5105091;28;20095;-71
2021/09/29 03:40:46;;;;;;;5.93;4.10;;;13.30;99.90;;;;;;5103671;28;20055;-72
2021/09/29 03:43:12;;;;;;;6.63;5.27;;;13.30;99.90;;;;;;5104966;28;20191;-71
2021/09/29 03:45:38;;;;;;;7.17;4.53;;;13.40;99.90;;;;;;5104960;28;20092;-71
2021/09/29 03:48:04;;;;;;;7.83;5.53;;;13.40;99.90;;;;;;5104954;28;20019;-72
2021/09/29 03:50:30;;;;;;;6.77;4.83;;;13.30;99.90;;;;;;5103204;28;20084;-71
2021/09/29 03:52:56;;;;;;;8.27;4.45;;;13.30;99.90;;;;;;5103621;28;20258;-71
2021/09/29 03:55:22;;;;;;;7.80;5.53;;;13.20;99.90;;;;;;5103672;28;20163;-71
2021/09/29 03:57:49;;;;;;;6.68;5.00;;;13.10;99.90;;;;;;5104821;28;20016;-71
2021/09/29 04:00:15;;;;;;;8.38;4.65;;;13.00;99.90;;;;;;5103295;28;20046;-71
2021/09/29 04:02:41;;;;;;;7.13;5.25;;;13.10;99.90;;;;;;5104478;28;20099;-71
2021/09/29 04:05:08;;;;;;;9.80;4.77;;;13.10;99.90;;;;;;5104069;28;20027;-70
2021/09/29 04:07:34;;;;;;;8.20;5.20;;;13.10;99.90;;;;;;5120342;28;20045;-72
2021/09/29 04:10:00;;;;;;;8.43;5.57;;;13.10;99.90;;;;;;5104324;28;20020;-71
2021/09/29 04:12:26;;;;;;;8.63;5.80;;;13.00;99.90;;;;;;5104374;28;20267;-71
2021/09/29 04:14:52;;;;;;;8.40;5.27;;;13.10;99.90;;;;;;5104339;28;20034;-71
2021/09/29 04:17:18;;;;;;;10.20;5.57;;;13.20;99.90;;;;;;5103204;28;20020;-71
2021/09/29 04:19:44;;;;;;;11.43;5.20;;;13.20;99.90;;;;;;5102867;28;20283;-71
2021/09/29 04:22:10;;;;;;;8.50;5.50;;;13.10;99.90;;;;;;5103994;28;20039;-71
2021/09/29 04:24:40;;;;;;;10.45;5.57;;;13.10;99.90;;;;;;5103254;28;20075;-71
2021/09/29 04:27:08;;;;;;;10.68;6.78;;;13.10;99.90;;;;;;5102921;28;20091;-71
2021/09/29 04:29:34;;;;;;;10.18;6.35;;;13.10;99.90;;;;;;5102800;28;20064;-72
2021/09/29 04:32:00;;;;;;;7.80;5.40;;;13.00;99.90;;;;;;5103556;28;20039;-73
2021/09/29 04:34:26;;;;;;;7.33;5.30;;;13.00;99.90;;;;;;5102367;28;20032;-71
2021/09/29 04:36:51;;;;;;;8.80;5.13;;;13.00;99.90;;;;;;5102852;28;20035;-71
2021/09/29 04:39:17;;;;;;;8.60;5.27;;;13.00;99.90;;;;;;5101932;28;20094;-71
2021/09/29 04:41:43;;;;;;;7.20;5.10;;;13.10;99.90;;;;;;5102218;28;20088;-72
2021/09/29 04:44:09;;;;;;;7.80;5.67;;;13.10;99.90;;;;;;5102615;28;20016;-72
2021/09/29 04:46:35;;;;;;;9.13;5.50;;;13.10;99.90;;;;;;5103682;28;20372;-72
2021/09/29 04:49:01;;;;;;;13.37;6.13;;;13.10;99.90;;;;;;5094420;28;20024;-72
2021/09/29 04:51:27;;;;;;;7.37;5.70;;;13.10;99.90;;;;;;5074456;28;20020;-72
2021/09/29 04:53:52;;;;;;;7.88;5.63;;;13.10;99.90;;;;;;5077731;28;20071;-71
2021/09/29 04:56:19;;;;;;;10.65;6.30;;;13.10;99.90;;;;;;5063320;28;20021;-71
2021/09/29 04:58:44;;;;;;;7.53;5.65;;;13.10;99.90;;;;;;5063224;28;20024;-71
2021/09/29 05:01:12;;;;;;;8.93;5.13;;;13.10;99.90;;;;;;5062938;28;20032;-71
2021/09/29 05:03:38;;;;;;;11.02;5.47;;;13.20;99.90;;;;;;5071256;28;20043;-71
2021/09/29 05:06:04;;;;;;;9.97;5.43;;;13.10;99.90;;;;;;5101690;28;20344;-72
2021/09/29 05:08:33;;;;;;;11.43;6.20;;;13.10;99.90;;;;;;5103349;28;20027;-71
2021/09/29 05:11:00;;;;;;;9.95;5.82;;;13.20;99.90;;;;;;5101945;28;20020;-71
2021/09/29 05:13:31;;;;;;;9.90;5.68;;;13.20;99.90;;;;;;5119031;28;20024;-71
2021/09/29 05:15:58;;;;;;;10.77;5.75;;;13.30;99.90;;;;;;5085405;28;20322;-71
2021/09/29 05:18:24;;;;;;;11.27;6.30;;;13.30;99.90;;;;;;5085372;28;20083;-71
2021/09/29 05:20:50;;;;;;;9.03;5.83;;;13.30;99.90;;;;;;5102576;28;20023;-71
2021/09/29 05:23:16;;;;;;;8.32;5.95;;;13.30;99.90;;;;;;5101862;28;20214;-71
2021/09/29 05:25:42;;;;;;;6.73;5.23;;;13.40;99.90;;;;;;5101853;28;20031;-70
2021/09/29 05:28:08;;;;;;;10.47;5.90;;;13.40;99.90;;;;;;5102998;28;20065;-71
2021/09/29 05:30:34;;;;;;;7.60;5.70;;;13.40;99.90;;;;;;5102696;28;20285;-71
2021/09/29 05:33:00;;;;;;;8.33;5.57;;;13.40;99.90;;;;;;5102873;28;20027;-71
2021/09/29 05:35:26;;;;;;;9.23;5.43;;;13.30;99.90;;;;;;5102370;28;20070;-71
2021/09/29 05:37:51;;;;;;;7.30;5.27;;;13.30;99.90;;;;;;5103004;28;20015;-71
2021/09/29 05:40:17;;;;;;;8.90;5.63;;;13.40;99.90;;;;;;5102501;28;20046;-71
2021/09/29 05:42:43;;;;;;;9.07;6.30;;;13.40;99.90;;;;;;5101505;28;20142;-71
2021/09/29 05:45:09;;;;;;;10.23;5.80;;;13.40;99.90;;;;;;5102784;28;20020;-71
2021/09/29 05:47:35;;;;;;;7.95;5.50;;;13.40;99.90;;;;;;5101570;28;20096;-71
2021/09/29 05:50:01;;;;;;;8.60;6.07;;;13.40;99.90;;;;;;5102069;28;20023;-70
2021/09/29 05:52:27;;;;;;;11.23;6.60;;;13.40;99.90;;;;;;5102149;28;20028;-72
2021/09/29 05:54:52;;;;;;;7.87;5.90;;;13.50;99.90;;;;;;5102799;28;20024;-71
2021/09/29 05:57:18;;;;;;;10.47;6.73;;;13.50;99.90;;;;;;5102569;28;20322;-71
2021/09/29 05:59:46;;;;;;;10.90;6.37;;;13.40;99.90;;;;;;5102299;28;20024;-71
2021/09/29 06:02:12;;;;;;;12.43;7.20;;;13.40;99.90;;;;;;5124911;22;20020;-69
2021/09/29 06:04:40;;;;;;;10.35;6.68;;;13.40;99.90;;;;;;5101885;28;20048;-70
2021/09/29 06:07:07;;;;;;;11.25;7.18;;;13.40;99.90;;;;;;5102950;28;20024;-70
2021/09/29 06:09:33;;;;;;;12.68;8.15;;;13.30;99.90;;;;;;5101902;28;20087;-70
2021/09/29 06:11:58;;;;;;;13.40;7.90;;;13.30;99.90;;;;;;5102563;28;20034;-71
2021/09/29 06:14:24;;;;;;;13.73;7.43;;;13.40;99.90;;;;;;5102754;28;20065;-70
2021/09/29 06:16:58;;;;;;;13.20;7.47;;;13.40;99.90;;;;;;5099998;28;20024;-71
2021/09/29 06:19:24;;;;;;;10.80;7.10;;;13.40;99.90;;;;;;5077056;28;20016;-78
2021/09/29 06:21:49;;;;;;;12.97;8.47;;;13.40;99.90;;;;;;5060831;28;20024;-72
2021/09/29 06:24:15;;;;;;;13.00;6.90;;;13.40;99.90;;;;;;5062155;28;20036;-70
2021/09/29 06:26:41;;;;;;;12.33;7.40;;;13.50;99.90;;;;;;5062341;28;20084;-72
2021/09/29 06:29:07;;;;;;;10.90;8.07;;;13.60;99.90;;;;;;5062389;28;20327;-73
2021/09/29 06:31:32;;;;;;;16.00;7.97;;;13.50;99.90;;;;;;5077735;28;20028;-70
2021/09/29 06:33:58;;;;;;;15.07;8.47;;;13.50;99.90;;;;;;5062162;28;20044;-71
2021/09/29 06:36:24;;;;;;;11.50;7.40;;;13.60;99.90;;;;;;5078671;28;20134;-73
2021/09/29 06:38:50;;;;;;;13.97;8.27;;;13.70;99.90;;;;;;5048175;28;20033;-71
2021/09/29 06:41:16;;;;;;;13.07;8.20;;;13.80;99.90;;;;;;5082133;28;20262;-74
2021/09/29 06:43:42;;;;;;;19.37;9.13;;;13.90;99.90;;;;;;5080995;28;20029;-71
2021/09/29 06:46:12;;;;;;;19.83;11.83;;;13.90;98.00;;;;;;5082349;28;20063;-72
2021/09/29 06:48:38;;;;;;;12.63;8.38;;;13.90;99.90;;;;;;5044528;28;20020;-79
2021/09/29 06:51:05;;;;;;;16.00;9.63;;;;;;;;;;5064892;28;20024;-73
2021/09/29 06:53:31;;;;;;;17.23;11.05;;;14.00;99.90;;;;;;5082035;28;20036;-76
2021/09/29 06:56:01;;;;;;;19.70;9.20;;;14.10;99.90;;;;;;5080517;28;20309;-75
2021/09/29 06:58:27;;;;;;;13.60;7.85;;;14.10;99.90;;;;;;5082205;28;20027;-75
2021/09/29 07:00:53;;;;;;;14.37;9.10;;;14.10;99.90;;;;;;5080697;28;20075;-75
2021/09/29 07:03:20;;;;;;;13.40;8.27;;;14.30;99.90;;;;;;5065156;28;20047;-73
2021/09/29 07:05:46;;;;;;;14.18;8.80;;;14.30;99.50;;;;;;5080529;28;20017;-74
2021/09/29 07:08:12;;;;;;;13.37;8.70;;;14.40;99.90;;;;;;5065911;28;20216;-70
2021/09/29 07:10:38;;;;;;;12.80;8.60;;;14.40;99.90;;;;;;5065522;28;20032;-69
2021/09/29 07:13:04;;;;;;;12.57;7.80;;;14.40;99.20;;;;;;5065511;28;20025;-74
2021/09/29 07:15:30;;;;;;;11.87;8.17;;;14.40;98.80;;;;;;5065604;28;20029;-71
2021/09/29 07:17:57;;;;;;;9.83;6.93;;;14.30;96.20;;;;;;5064975;28;20048;-68
2021/09/29 07:20:24;;;;;;;10.25;6.85;;;14.50;95.60;;;;;;5084643;28;20020;-71
2021/09/29 07:22:49;;;;;;;11.02;6.85;;;14.50;95.10;;;;;;5047379;28;20227;-70
2021/09/29 07:25:15;;;;;;;12.90;6.87;;;14.50;94.50;;;;;;5065335;28;20040;-72
2021/09/29 07:27:41;;;;;;;17.27;6.83;;;14.50;94.60;;;;;;5064146;28;20029;-73
2021/09/29 07:30:08;;;;;;;11.63;6.70;;;14.60;94.60;;;;;;5063967;28;20384;-72
2021/09/29 07:32:34;;;;;;;9.93;6.90;;;14.70;95.10;;;;;;5065542;28;20016;-71
2021/09/29 07:35:00;;;;;;;11.43;6.13;;;14.70;94.10;;;;;;5068854;28;20339;-72
2021/09/29 07:37:26;;;;;;;9.70;6.30;;;14.70;93.80;;;;;;5085487;28;20342;-71
2021/09/29 07:39:52;;;;;;;9.45;7.15;;;14.70;93.80;;;;;;5084054;28;20027;-72
2021/09/29 07:42:18;;;;;;;7.90;6.13;;;14.70;94.20;;;;;;5083942;28;20020;-72
2021/09/29 07:44:43;;;;;;;12.37;6.07;;;14.60;93.60;;;;;;5067411;28;20028;-71
2021/09/29 07:47:09;;;;;;;10.00;5.17;;;14.70;93.90;;;;;;5085243;28;20262;-72
2021/09/29 07:49:35;;;;;;;10.20;4.20;;;14.70;93.90;;;;;;5077521;28;20016;-71
2021/09/29 07:52:01;;;;;;;12.95;4.38;;;14.70;94.00;;;;;;5083262;28;20025;-71
2021/09/29 07:54:27;;;;;;;7.27;3.23;;;14.60;92.90;;;;;;5083843;28;20241;-71
2021/09/29 07:56:54;;;;;;;6.47;3.77;;;14.60;92.10;;;;;;5085136;28;20012;-72
2021/09/29 07:59:20;;;;;;;7.95;3.22;;;14.70;91.70;;;;;;5084016;28;20341;-71
2021/09/29 08:01:46;;;;;;;5.43;2.90;;;14.80;91.00;;;;;;5084692;28;20052;-71
2021/09/29 08:04:12;;;;;;;5.90;3.10;;;14.80;90.90;;;;;;5083431;28;20027;-71
2021/09/29 08:06:37;;;;;;;3.97;2.70;;;14.80;91.50;;;;;;5066403;28;20323;-72
2021/09/29 08:09:03;;;;;;;6.23;3.50;;;14.80;91.60;;;;;;5064818;28;20215;-72
2021/09/29 08:11:29;;;;;;;4.93;3.07;;;14.80;92.70;;;;;;5064510;28;20017;-72
2021/09/29 08:13:55;;;;;;;6.33;2.40;;;14.80;92.40;;;;;;5064305;28;20024;-71
2021/09/29 08:16:21;;;;;;;4.93;2.57;;;14.90;92.40;;;;;;5064366;28;20025;-71
2021/09/29 08:18:46;;;;;;;4.23;2.73;;;15.00;91.50;;;;;;5066068;28;20025;-71
2021/09/29 08:21:18;;;;;;;5.03;3.07;;;14.90;91.50;;;;;;5079077;28;20019;-71
2021/09/29 08:23:48;;;;;;;10.55;2.55;;;15.00;92.40;;;;;;5064504;28;20021;-72
2021/09/29 08:29:06;;;;;;;4.18;2.50;;;15.20;91.80;;;;;;5063028;28;20016;-71
2021/09/29 08:31:34;;;;;;;4.63;2.22;;;15.20;91.50;;;;;;5064577;28;20082;-73
2021/09/29 08:36:45;;;;;;;6.85;2.42;;;15.20;91.20;;;;;;5076010;28;20028;-71
2021/09/29 08:44:11;;;;;;;6.15;2.28;;;15.10;91.50;;;;;;5083252;28;20032;-72
2021/09/29 08:49:29;;;;;;;2.25;1.70;;;15.20;90.80;;;;;;5051788;28;20038;-71
2021/09/29 09:16:39;;;;;;;;;;;15.90;71.00;;;;;;5063977;28;20032;-71
2021/09/29 09:19:10;;;;;;;5.22;1.67;;;16.00;72.90;;;;;;5063624;28;19905;-72
2021/09/29 09:21:52;;;;;;;2.78;1.10;;;16.10;70.90;;;;;;5072492;28;20042;-71
2021/09/29 09:24:23;;;;;;;2.15;1.27;;;16.20;70.60;;;;;;5082958;28;20087;-71
2021/09/29 09:27:09;;;;;;;2.75;1.48;;;16.40;71.00;;;;;;5081680;28;20223;-71
2021/09/29 09:29:52;;;;;;;3.47;1.30;;;16.40;69.80;;;;;;5082527;28;20311;-73
2021/09/29 09:32:23;;;;;;;5.03;1.48;;;16.50;69.60;;;;;;5081702;28;20261;-71
2021/09/29 09:35:04;;;;;;;1.55;1.38;;;16.50;69.00;;;;;;5081678;28;20028;-71
2021/09/29 09:37:30;;;;;;;1.98;1.50;;;16.80;74.80;;;;;;5063478;28;20211;-71
2021/09/29 09:40:11;;;;;;;3.28;1.25;;;16.70;65.70;;;;;;5062974;28;20032;-74
2021/09/29 09:42:42;;;;;;;3.40;1.30;;;16.50;65.10;;;;;;5061891;28;20056;-72
2021/09/29 09:45:09;;;;;;;3.15;1.30;;;16.50;66.10;;;;;;5063012;28;20285;-72
2021/09/29 09:47:46;;;;;;;2.92;1.30;;;16.50;68.60;;;;;;5063019;28;20036;-71
2021/09/29 09:50:23;;;;;;;2.03;1.40;;;16.80;67.40;;;;;;5062769;28;20035;-71
2021/09/29 09:52:49;;;;;;;4.05;1.27;;;17.10;66.50;;;;;;5061525;28;20031;-71
2021/09/29 09:55:19;;;;;;;3.73;1.80;;;17.10;77.00;;;;;;5061680;28;20024;-71
2021/09/29 09:57:45;;;;;;;4.07;1.40;;;17.00;65.00;;;;;;5063079;28;20020;-72
2021/09/29 10:00:15;;;;;;;4.68;1.65;;;17.00;66.30;;;;;;5061351;28;20032;-71
2021/09/29 10:02:45;;;;;;;2.75;1.23;;;17.00;66.90;;;;;;5061480;28;20025;-72
2021/09/29 10:05:15;;;;;;;3.47;1.50;;;;;;;;;;5062712;28;20075;-71
2021/09/29 10:07:41;;;;;;;4.30;1.42;;;17.30;62.40;;;;;;5060994;28;20031;-72
2021/09/29 10:10:21;;;;;;;3.07;1.20;;;17.80;60.90;;;;;;5061386;28;20036;-72
2021/09/29 10:24:09;;;;;;;1.85;0.73;;;17.30;57.50;;;;;;5047587;28;20067;-71
2021/09/29 10:26:34;;;;;;;4.07;1.20;;;17.20;58.30;;;;;;5046381;28;20029;-71
2021/09/29 10:29:08;;;;;;;1.27;1.13;;;17.60;57.50;;;;;;5062672;28;20048;-72
2021/09/29 10:34:07;;;;;;;2.13;0.90;;;18.30;57.40;;;;;;5062483;28;20048;-71
2021/09/29 10:42:55;;;;;;;1.60;0.80;;;19.20;52.00;;;;;;5066200;28;20023;-73
2021/09/29 10:48:24;;;;;;;2.97;1.00;;;18.30;52.30;;;;;;5066505;28;20021;-74
2021/09/29 10:51:16;;;;;;;2.40;0.85;;;18.90;52.00;;;;;;5067232;28;20357;-71
2021/09/29 11:30:33;;;;;;;2.55;0.80;;;24.80;38.80;;;;;;5065445;28;20025;-73
2021/09/29 12:08:51;;;;;;;1.50;0.88;;;20.10;48.70;;;;;;5064247;28;20035;-72
2021/09/29 12:11:23;;;;;;;1.88;0.50;;;19.80;49.10;;;;;;5063502;28;20223;-72
2021/09/29 12:14:02;;;;;;;1.80;0.57;;;19.50;49.00;;;;;;5064638;28;20029;-72
2021/09/29 12:16:36;;;;;;;2.70;0.57;;;19.20;48.20;;;;;;5063661;28;20033;-72
2021/09/29 12:19:06;;;;;;;4.22;0.80;;;18.90;49.20;;;;;;5064628;28;20362;-72
2021/09/29 12:21:47;;;;;;;1.85;0.60;;;18.70;49.50;;;;;;5063892;28;20017;-72
2021/09/29 12:30:16;;;;;;;4.05;0.80;;;18.70;50.10;;;;;;5084282;28;20039;-74
2021/09/29 12:32:54;;;;;;;2.00;0.60;;;18.80;50.60;;;;;;5084312;28;20066;-73
2021/09/29 12:36:05;;;;;;;1.55;0.90;;;19.60;48.60;;;;;;5068212;28;20412;-73
2021/09/29 12:38:06;;;;;;;0.50;0.50;;;20.30;48.00;;;;;;5065724;28;20044;-73
2021/09/29 12:40:35;;;;;;;3.30;0.77;;;22.00;44.30;;;;;;5062973;28;20033;-71
2021/09/29 12:43:09;;;;;;;1.38;0.73;;;23.20;41.80;;;;;;5062083;28;20025;-72
2021/09/29 12:45:37;;;;;;;1.27;0.57;;;24.30;40.30;;;;;;5063649;28;20032;-72
2021/09/29 12:48:06;;;;;;;1.63;0.68;;;24.80;38.90;;;;;;5063293;28;20024;-71
2021/09/29 12:56:11;;;;;;;2.83;0.90;;;24.80;37.30;;;;;;5062354;28;20044;-71
2021/09/29 12:58:37;;;;;;;1.83;0.50;;;22.60;40.20;;;;;;5062543;28;20339;-73
2021/09/29 13:01:02;;;;;;;1.10;0.70;;;21.40;43.10;;;;;;5061957;28;20027;-72
2021/09/29 13:03:28;;;;;;;3.30;0.85;;;20.80;44.70;;;;;;5063114;28;20282;-72
2021/09/29 13:05:55;;;;;;;1.20;0.70;;;20.80;48.70;;;;;;5063217;28;20032;-71
2021/09/29 13:08:21;;;;;;;3.50;1.10;;;21.10;46.10;;;;;;5062564;28;20092;-72
2021/09/29 13:10:47;;;;;;;1.38;0.80;;;21.10;44.90;;;;;;5062771;28;20286;-70
2021/09/29 13:13:13;;;;;;;4.85;0.90;;;;;;;;;;5063108;28;20029;-68
2021/09/29 13:15:42;;;;;;;1.88;0.60;;;21.00;47.40;;;;;;5063094;28;20024;-73
2021/09/29 13:18:11;;;;;;;3.45;0.60;;;22.10;46.70;;;;;;5062923;28;20070;-73
2021/09/29 13:20:38;;;;;;;2.05;0.52;;;22.70;42.90;;;;;;5062515;28;20037;-75
2021/09/29 13:23:09;;;;;;;1.70;0.85;;;23.20;41.40;;;;;;5062524;28;20017;-73
2021/09/29 13:36:35;;;;;;;3.05;0.85;;;21.20;45.80;;;;;;5061439;28;20079;-72
2021/09/29 13:39:12;;;;;;;0.90;0.60;;;20.90;47.40;;;;;;5061514;28;20092;-72
2021/09/29 13:41:38;;;;;;;1.92;0.80;;;20.60;48.40;;;;;;5045719;28;20013;-74
2021/09/29 13:44:04;;;;;;;1.65;0.90;;;20.80;49.30;;;;;;5060629;28;20080;-76
2021/09/29 13:46:30;;;;;;;1.60;1.27;;;21.20;46.30;;;;;;5072936;28;20024;-74
2021/09/29 13:48:58;;;;;;;4.40;0.93;;;21.00;47.30;;;;;;5082018;28;20274;-73
2021/09/29 13:51:26;;;;;;;0.60;0.52;;;20.70;47.60;;;;;;5082216;28;20031;-74
2021/09/29 13:53:53;;;;;;;2.03;0.80;;;20.40;48.40;;;;;;5082303;28;20064;-74
2021/09/29 13:56:20;;;;;;;1.70;0.70;;;20.20;49.10;;;;;;5064374;28;20024;-76
2021/09/29 14:31:04;;;;;;;0.88;0.68;;;19.50;50.70;;;;;;5080770;28;20027;-79
2021/09/29 14:33:38;;;;;;;1.65;0.70;;;19.40;52.60;;;;;;5080522;28;20093;-78
2021/09/29 14:36:04;;;;;;;1.63;0.60;;;19.30;52.60;;;;;;5049582;28;20024;-79
2021/09/29 14:38:30;;;;;;;3.03;0.70;;;19.10;52.50;;;;;;5080674;28;20025;-78
2021/09/29 14:40:55;;;;;;;1.23;0.60;;;19.10;53.20;;;;;;5080491;28;20581;-79
2021/09/29 14:43:21;;;;;;;1.50;0.60;;;18.90;52.50;;;;;;5080426;28;20029;-78
2021/09/29 14:45:47;;;;;;;2.87;1.40;;;18.70;52.50;;;;;;5063746;28;20056;-75
2021/09/29 14:48:13;;;;;;;2.50;1.03;;;18.50;55.20;;;;;;5041535;28;20331;-75
2021/09/29 14:50:39;;;;;;;0.70;0.70;;;17.90;63.80;;;;;;5079688;28;20047;-75
2021/09/29 14:53:04;;;;;;;2.33;0.90;;;17.40;69.80;;;;;;5060134;28;20020;-75
2021/09/29 14:55:33;;;;;;;1.27;0.80;;;17.10;73.80;;;;;;5060584;28;20259;-75
2021/09/29 14:57:59;;;;;;;1.05;0.80;;;16.90;75.40;;;;;;5060548;28;20029;-75
2021/09/29 15:00:32;;;;;;;1.77;0.70;;;16.60;77.80;;;;;;5060196;28;20024;-75
2021/09/29 15:02:59;;;;;;;4.32;0.80;;;16.10;78.50;;;;;;5060043;28;20036;-75
2021/09/29 15:05:25;;;;;;;1.08;0.68;;;15.20;83.60;;;;;;5061223;28;20070;-74
2021/09/29 15:07:51;;;;;;;1.58;0.70;;;15.00;84.80;;;;;;5043511;28;20314;-75
2021/09/29 15:10:17;;;;;;;0.97;0.87;;;15.20;85.60;;;;;;5025935;28;20456;-76
2021/09/29 15:12:43;;;;;;;6.23;2.37;;;15.30;85.00;;;;;;5061159;28;20058;-76
2021/09/29 15:18:00;;;;;;;4.25;1.50;;;15.30;84.80;;;;;;5061777;28;20021;-76
2021/09/29 15:54:38;;;;;;;3.42;0.80;;;15.40;80.90;;;;;;5048583;28;20025;-74
2021/09/29 16:02:46;;;;;;;1.83;0.60;;;15.20;80.10;;;;;;5062202;28;20028;-74
2021/09/29 16:05:01;;;;;;;2.08;0.68;;;15.30;79.10;;;;;;5044576;28;20072;-74
2021/09/29 16:07:44;;;;;;;0.65;0.63;;;15.20;80.20;;;;;;5063737;28;20092;-74
2021/09/29 16:33:55;;;;;;;0.55;0.50;;;15.00;82.90;;;;;;5063840;28;20020;-74
2021/09/29 16:36:21;;;;;;;0.50;0.50;;;14.80;82.60;;;;;;5062255;28;20033;-74
2021/09/29 16:38:47;;;;;;;0.75;0.40;;;14.80;83.40;;;;;;5063497;28;20135;-74
2021/09/29 16:41:13;;;;;;;0.77;0.40;;;14.80;83.60;;;;;;5063192;28;20021;-74
2021/09/29 16:43:40;;;;;;;1.25;0.55;;;14.70;91.90;;;;;;5062374;28;20509;-74
2021/09/29 16:46:06;;;;;;;0.80;0.40;;;14.70;91.80;;;;;;5043818;28;20062;-74
2021/09/29 16:48:33;;;;;;;0.70;0.70;;;14.70;91.40;;;;;;5082292;28;20032;-74
2021/09/29 16:53:50;;;;;;;1.98;0.68;;;14.50;91.60;;;;;;5082508;28;20056;-73
2021/09/29 16:56:16;;;;;;;1.42;0.57;;;14.50;87.50;;;;;;5083255;28;20079;-74
2021/09/29 17:01:16;;;;;;;1.65;0.73;;;14.50;83.80;;;;;;5081720;28;20215;-73
2021/09/29 17:03:42;;;;;;;0.50;0.50;;;14.40;83.40;;;;;;5065883;28;20024;-74
2021/09/29 17:06:08;;;;;;;0.70;0.60;;;14.40;83.60;;;;;;5082070;28;20028;-74
2021/09/29 17:08:36;;;;;;;1.48;0.80;;;14.30;83.70;;;;;;5082776;28;20032;-74
2021/09/29 17:11:03;;;;;;;0.98;0.65;;;14.30;86.00;;;;;;5082800;28;20265;-74